Hobart Regional Airport Hobart US
ICAO: KHBR
IATA: HBR
Category: Medium
Scheduled Services: No

Elevation: 1563 ft
TransAlt. 18000 ft.

Airport Communications:
ALTUS APP:125.1
ASOS:133.325
ALTUS DEP:125.1
MC ALESTER RDO:122.2
CTAF/UNICOM:122.8

KHBR Zoom In..

Runways:

(A) RW 03 length 5297 ft width 150 ft
---- / hdg 38

(B) RW 12 length 5295 ft width 150 ft
---- / hdg 128

(C) RW 17 length 5507 ft width 100 ft
---- / hdg 173

(D) RW 21 length 5297 ft width 150 ft
---- / hdg 218

(E) RW 30 length 5295 ft width 150 ft
---- / hdg 308

(F) RW 35 length 5507 ft width 100 ft
---- / hdg 353

Location; KHBR
Day. 20 / Time. 01.53 Zulu
* Altimeter: 29.80
* Temperature: 34° c. 93.2°f.
* Wind from: 170° Speed 09 kn.
Dewpoint: 09° c.
Visibility: 7 Statute Miles.
Clouds: Clear (automated report).

KHBR 200153Z AUTO 17009KT 7SM CLR 34/09 A2980 RMK AO2 SLP067 T03440094 $


Wind From 170°
Speed 09 kn.

 
 
jpsmedia.com for Web Design worldairports.se 2018   terms of use